createdAt,value
2023-01-15T00:02:27.701Z,5.16
2023-01-15T00:04:55.464Z,5.26
2023-01-15T00:07:23.166Z,5.32
2023-01-15T00:09:50.935Z,5.10
2023-01-15T00:12:18.697Z,5.19
2023-01-15T00:14:46.265Z,5.42
2023-01-15T00:17:13.720Z,5.33
2023-01-15T00:19:41.658Z,5.30
2023-01-15T00:22:09.122Z,5.39
2023-01-15T00:24:55.345Z,5.15
2023-01-15T00:27:41.640Z,5.00
2023-01-15T00:30:13.010Z,5.13
2023-01-15T00:32:41.926Z,5.05
2023-01-15T00:35:14.575Z,5.34
2023-01-15T00:37:43.016Z,5.11
2023-01-15T00:40:12.421Z,5.10
2023-01-15T00:42:40.495Z,5.12
2023-01-15T00:45:11.218Z,4.97
2023-01-15T00:47:43.933Z,5.27
2023-01-15T00:50:13.751Z,5.16
2023-01-15T00:52:41.874Z,5.22
2023-01-15T00:55:09.469Z,5.11
2023-01-15T00:57:37.213Z,5.14
2023-01-15T01:00:05.424Z,4.96
2023-01-15T01:02:32.944Z,5.05
2023-01-15T01:05:02.072Z,4.80
2023-01-15T01:07:31.701Z,4.52
2023-01-15T01:09:59.262Z,4.78
2023-01-15T01:12:27.168Z,4.98
2023-01-15T01:14:55.810Z,3.72
2023-01-15T01:17:23.447Z,4.07
2023-01-15T01:19:52.405Z,3.87
2023-01-15T01:22:19.776Z,4.00
2023-01-15T01:24:47.315Z,4.01
2023-01-15T01:27:16.792Z,4.11
2023-01-15T01:29:44.395Z,4.35
2023-01-15T01:32:11.885Z,4.27
2023-01-15T01:34:39.850Z,4.51
2023-01-15T01:37:07.444Z,4.41
2023-01-15T01:39:35.282Z,4.25
2023-01-15T01:42:03.124Z,4.20
2023-01-15T01:44:33.499Z,3.82
2023-01-15T01:47:02.934Z,4.07
2023-01-15T01:49:31.175Z,3.70
2023-01-15T01:52:13.810Z,3.78
2023-01-15T01:54:42.127Z,3.74
2023-01-15T01:57:09.913Z,4.12
2023-01-15T01:59:38.041Z,4.20
2023-01-15T02:02:06.277Z,4.30
2023-01-15T02:04:34.673Z,4.32
2023-01-15T02:07:03.803Z,4.12
2023-01-15T02:09:31.189Z,3.52
2023-01-15T02:12:06.913Z,3.80
2023-01-15T02:15:04.295Z,3.92
2023-01-15T02:17:59.238Z,3.57
2023-01-15T02:20:54.972Z,3.53
2023-01-15T02:23:53.438Z,3.23
2023-01-15T02:26:24.189Z,3.56
2023-01-15T02:28:54.625Z,3.40
2023-01-15T02:31:34.867Z,3.59
2023-01-15T02:34:10.957Z,3.75
2023-01-15T02:36:41.431Z,3.69
2023-01-15T02:39:13.369Z,3.90
2023-01-15T02:41:47.995Z,4.07
2023-01-15T02:44:18.421Z,3.89
2023-01-15T02:46:47.614Z,4.13
2023-01-15T02:49:18.755Z,4.00
2023-01-15T02:52:07.354Z,3.92
2023-01-15T02:54:40.384Z,4.05
2023-01-15T02:57:09.843Z,3.63
2023-01-15T02:59:40.765Z,3.83
2023-01-15T03:02:16.773Z,3.87
2023-01-15T03:05:00.097Z,3.46
2023-01-15T03:07:35.651Z,3.35
2023-01-15T03:10:05.107Z,3.38
2023-01-15T03:13:05.014Z,3.81
2023-01-15T03:16:04.536Z,4.10
2023-01-15T03:18:37.180Z,3.89
2023-01-15T03:21:08.791Z,3.68
2023-01-15T03:23:39.714Z,3.57
2023-01-15T03:26:07.336Z,3.70
2023-01-15T03:28:36.879Z,3.22
2023-01-15T03:31:05.258Z,3.34
2023-01-15T03:33:34.507Z,3.51
2023-01-15T03:36:02.977Z,3.70
2023-01-15T03:38:35.506Z,4.10
2023-01-15T03:41:06.306Z,3.44
2023-01-15T03:43:43.451Z,3.64
2023-01-15T03:46:31.553Z,3.53
2023-01-15T03:49:07.268Z,3.76
2023-01-15T03:51:50.258Z,3.61
2023-01-15T03:54:24.356Z,3.59
2023-01-15T03:56:55.650Z,3.39
2023-01-15T03:59:27.439Z,3.25
2023-01-15T04:01:55.861Z,3.24
2023-01-15T04:04:25.639Z,3.48
2023-01-15T04:06:54.842Z,3.54
2023-01-15T04:09:22.856Z,3.46
2023-01-15T04:11:52.014Z,3.27
2023-01-15T04:14:19.810Z,3.30
2023-01-15T04:16:47.971Z,3.64
2023-01-15T04:19:15.715Z,3.54
2023-01-15T04:21:44.827Z,3.98
2023-01-15T04:24:12.413Z,3.14
2023-01-15T04:26:40.161Z,3.83
2023-01-15T04:29:07.956Z,3.55
2023-01-15T04:31:36.320Z,3.76
2023-01-15T04:34:04.393Z,4.21
2023-01-15T04:36:35.407Z,3.99
2023-01-15T04:39:04.988Z,4.00
2023-01-15T04:41:51.418Z,3.27
2023-01-15T04:44:18.865Z,3.52
2023-01-15T04:46:47.805Z,3.48
2023-01-15T04:49:16.994Z,3.37
2023-01-15T04:51:45.037Z,3.75
2023-01-15T04:54:15.031Z,3.91
2023-01-15T04:56:45.250Z,3.85
2023-01-15T04:59:14.349Z,3.91
2023-01-15T05:01:51.352Z,3.80
2023-01-15T05:04:26.150Z,3.83
2023-01-15T05:06:53.673Z,4.23
2023-01-15T05:09:21.230Z,3.70
2023-01-15T05:11:50.211Z,4.08
2023-01-15T05:14:17.643Z,3.96
2023-01-15T05:16:45.154Z,4.12
2023-01-15T05:19:13.084Z,3.54
2023-01-15T05:21:41.978Z,3.76
2023-01-15T05:24:13.779Z,3.88
2023-01-15T05:26:41.965Z,3.57
2023-01-15T05:29:10.705Z,3.66
2023-01-15T05:31:38.129Z,3.58
2023-01-15T05:34:06.347Z,3.47
2023-01-15T05:36:33.785Z,3.65
2023-01-15T05:39:02.414Z,3.75
2023-01-15T05:41:49.438Z,3.61
2023-01-15T05:44:25.411Z,3.83
2023-01-15T05:46:55.942Z,3.72
2023-01-15T05:49:26.866Z,3.83
2023-01-15T05:51:55.252Z,3.89
2023-01-15T05:54:27.708Z,3.51
2023-01-15T05:56:56.300Z,3.89
2023-01-15T05:59:26.540Z,3.18
2023-01-15T06:01:54.994Z,3.63
2023-01-15T06:04:23.005Z,3.68
2023-01-15T06:06:51.744Z,3.72
2023-01-15T06:09:19.941Z,4.01
2023-01-15T06:11:47.857Z,3.59
2023-01-15T06:14:15.753Z,3.65
2023-01-15T06:16:43.352Z,4.11
2023-01-15T06:19:11.944Z,4.21
2023-01-15T06:21:39.968Z,4.18
2023-01-15T06:24:08.329Z,3.69
2023-01-15T06:26:36.278Z,4.01
2023-01-15T06:29:03.680Z,4.21
2023-01-15T06:31:32.686Z,3.88
2023-01-15T06:34:00.523Z,3.83
2023-01-15T06:36:28.523Z,4.23
2023-01-15T06:38:56.402Z,4.12
2023-01-15T06:41:45.511Z,4.46
2023-01-15T06:44:33.670Z,4.62
2023-01-15T06:47:22.665Z,4.13
2023-01-15T06:49:55.108Z,4.63
2023-01-15T06:52:24.557Z,4.58
2023-01-15T06:54:52.361Z,4.85
2023-01-15T06:57:20.332Z,4.61
2023-01-15T06:59:49.503Z,4.64
2023-01-15T07:02:18.376Z,5.17
2023-01-15T07:04:47.014Z,4.84
2023-01-15T07:07:16.322Z,4.62
2023-01-15T07:09:43.973Z,4.75
2023-01-15T07:12:11.578Z,4.77
2023-01-15T07:14:39.714Z,4.68
2023-01-15T07:17:07.493Z,4.78
2023-01-15T07:19:36.071Z,5.29
2023-01-15T07:22:04.833Z,5.18
2023-01-15T07:24:32.494Z,5.42
2023-01-15T07:27:01.001Z,5.39
2023-01-15T07:29:30.706Z,5.19
2023-01-15T07:31:58.965Z,4.98
2023-01-15T07:34:26.490Z,4.92
2023-01-15T07:36:54.192Z,5.19
2023-01-15T07:39:21.677Z,4.82
2023-01-15T07:42:07.976Z,5.18
2023-01-15T07:44:54.538Z,5.02
2023-01-15T07:47:42.564Z,5.21
2023-01-15T07:50:16.475Z,5.29
2023-01-15T07:52:44.057Z,5.21
2023-01-15T07:55:15.104Z,5.37
2023-01-15T07:57:42.993Z,5.47
2023-01-15T08:00:13.536Z,5.24
2023-01-15T08:02:41.606Z,5.26
2023-01-15T08:05:09.931Z,4.85
2023-01-15T08:07:39.286Z,5.08
2023-01-15T08:10:07.618Z,5.69
2023-01-15T08:12:57.121Z,5.49
2023-01-15T08:15:26.036Z,5.17
2023-01-15T08:17:54.034Z,4.97
2023-01-15T08:20:24.366Z,5.69
2023-01-15T08:22:52.246Z,5.52
2023-01-15T08:25:23.269Z,5.80
2023-01-15T08:27:51.359Z,5.33
2023-01-15T08:30:25.222Z,5.73
2023-01-15T08:32:53.090Z,5.80
2023-01-15T08:35:20.758Z,6.04
2023-01-15T08:37:48.198Z,6.08
2023-01-15T08:40:16.214Z,6.16
2023-01-15T08:42:43.786Z,6.25
2023-01-15T08:45:11.764Z,6.17
2023-01-15T08:47:39.671Z,5.99
2023-01-15T08:50:08.859Z,6.19
2023-01-15T08:52:38.147Z,5.93
2023-01-15T08:55:06.686Z,5.72
2023-01-15T08:57:34.435Z,5.93
2023-01-15T09:00:02.106Z,6.00
2023-01-15T09:02:32.619Z,6.23
2023-01-15T09:05:00.195Z,6.10
2023-01-15T09:07:27.748Z,6.32
2023-01-15T09:09:55.663Z,5.99
2023-01-15T09:12:24.991Z,5.71
2023-01-15T09:14:59.343Z,6.07
2023-01-15T09:17:33.260Z,6.38
2023-01-15T09:20:01.241Z,6.22
2023-01-15T09:22:30.997Z,6.28
2023-01-15T09:24:59.105Z,6.53
2023-01-15T09:27:28.300Z,6.20
2023-01-15T09:29:57.159Z,6.35
2023-01-15T09:32:24.982Z,5.90
2023-01-15T09:34:52.637Z,5.79
2023-01-15T09:37:20.242Z,6.14
2023-01-15T09:39:48.288Z,6.38
2023-01-15T09:42:43.806Z,6.41
2023-01-15T09:45:30.955Z,6.20
2023-01-15T09:48:19.835Z,6.19
2023-01-15T09:51:03.227Z,6.41
2023-01-15T09:53:46.195Z,6.25
2023-01-15T09:56:23.942Z,6.36
2023-01-15T09:58:52.769Z,6.25
2023-01-15T10:01:29.609Z,6.51
2023-01-15T10:04:13.677Z,6.51
2023-01-15T10:06:55.296Z,6.34
2023-01-15T10:09:31.404Z,6.37
2023-01-15T10:12:22.860Z,6.76
2023-01-15T10:15:02.417Z,6.55
2023-01-15T10:17:42.299Z,6.83
2023-01-15T10:20:24.434Z,7.11
2023-01-15T10:23:29.586Z,7.12
2023-01-15T10:26:18.898Z,6.96
2023-01-15T10:29:01.971Z,6.82
2023-01-15T10:31:50.561Z,6.99
2023-01-15T10:34:36.750Z,7.21
2023-01-15T10:37:41.881Z,7.44
2023-01-15T10:40:19.231Z,7.22
2023-01-15T10:43:25.679Z,7.37
2023-01-15T10:45:56.881Z,7.74
2023-01-15T10:48:26.602Z,7.46
2023-01-15T10:50:54.384Z,7.58
2023-01-15T10:53:28.103Z,7.84
2023-01-15T10:56:05.997Z,7.86
2023-01-15T10:59:09.445Z,7.83
2023-01-15T11:01:37.599Z,8.12
2023-01-15T11:04:05.352Z,7.96
2023-01-15T11:06:33.216Z,8.35
2023-01-15T11:09:11.166Z,8.50
2023-01-15T11:12:00.480Z,8.15
2023-01-15T11:14:57.217Z,8.12
2023-01-15T11:17:56.027Z,8.32
2023-01-15T11:20:33.063Z,7.64
2023-01-15T11:23:09.575Z,8.24
2023-01-15T11:25:39.676Z,7.98
2023-01-15T11:28:09.907Z,8.26
2023-01-15T11:30:45.276Z,8.18
2023-01-15T11:33:24.691Z,8.16
2023-01-15T11:35:58.662Z,8.10
2023-01-15T11:38:31.259Z,8.49
2023-01-15T11:41:01.645Z,8.97
2023-01-15T11:43:49.498Z,8.96
2023-01-15T11:46:50.363Z,8.60
2023-01-15T11:49:39.200Z,8.47
2023-01-15T11:52:10.678Z,8.40
2023-01-15T11:54:42.664Z,8.19
2023-01-15T11:57:11.189Z,8.26
2023-01-15T11:59:38.984Z,8.52
2023-01-15T12:02:35.996Z,8.99
2023-01-15T12:05:05.786Z,8.93
2023-01-15T12:07:38.947Z,8.93
2023-01-15T12:10:42.047Z,9.06
2023-01-15T12:13:29.356Z,9.22
2023-01-15T12:16:14.830Z,8.81
2023-01-15T12:19:07.277Z,8.22
2023-01-15T12:21:35.033Z,8.55
2023-01-15T12:24:17.736Z,8.78
2023-01-15T12:27:16.890Z,8.61
2023-01-15T12:29:48.297Z,8.90
2023-01-15T12:32:38.974Z,8.98
2023-01-15T12:35:15.267Z,8.87
2023-01-15T12:37:52.259Z,9.06
2023-01-15T12:40:30.577Z,9.01
2023-01-15T12:43:16.971Z,9.52
2023-01-15T12:45:48.314Z,9.32
2023-01-15T12:48:26.897Z,9.09
2023-01-15T12:50:59.667Z,9.58
2023-01-15T12:53:53.626Z,9.71
2023-01-15T12:56:45.689Z,9.69
2023-01-15T12:59:24.695Z,9.60
2023-01-15T13:02:13.621Z,9.93
2023-01-15T13:04:47.646Z,9.51
2023-01-15T13:07:34.816Z,9.98
2023-01-15T13:10:34.694Z,9.76
2023-01-15T13:13:25.742Z,9.88
2023-01-15T13:16:11.994Z,9.76
2023-01-15T13:19:01.566Z,9.79
2023-01-15T13:21:31.805Z,9.93
2023-01-15T13:24:24.353Z,9.69
2023-01-15T13:27:02.383Z,9.68
2023-01-15T13:29:29.854Z,9.60
2023-01-15T13:32:19.085Z,9.60
2023-01-15T13:34:55.247Z,9.90
2023-01-15T13:37:32.862Z,9.49
2023-01-15T13:40:25.689Z,9.41
2023-01-15T13:42:54.055Z,9.62
2023-01-15T13:45:28.015Z,9.75
2023-01-15T13:47:59.087Z,9.83
2023-01-15T13:50:33.284Z,9.75
2023-01-15T13:53:15.086Z,9.68
2023-01-15T13:55:51.700Z,9.64
2023-01-15T13:58:26.514Z,9.50
2023-01-15T14:01:08.624Z,9.62
2023-01-15T14:03:38.302Z,9.40
2023-01-15T14:06:08.486Z,9.48
2023-01-15T14:08:44.485Z,9.72
2023-01-15T14:11:43.452Z,9.93
2023-01-15T14:14:21.880Z,9.77
2023-01-15T14:17:26.771Z,9.71
2023-01-15T14:20:15.653Z,9.63
2023-01-15T14:23:22.156Z,9.67
2023-01-15T14:26:11.005Z,9.91
2023-01-15T14:28:53.892Z,9.86
2023-01-15T14:31:39.635Z,9.87
2023-01-15T14:34:17.934Z,9.73
2023-01-15T14:37:04.538Z,9.98
2023-01-15T14:39:37.690Z,9.92
2023-01-15T14:42:26.598Z,10.06
2023-01-15T14:45:00.465Z,9.91
2023-01-15T14:47:36.244Z,10.09
2023-01-15T14:50:27.865Z,10.15
2023-01-15T14:53:14.439Z,10.39
2023-01-15T14:55:57.600Z,10.24
2023-01-15T14:58:40.553Z,10.10
2023-01-15T15:01:35.200Z,9.93
2023-01-15T15:04:14.023Z,10.31
2023-01-15T15:06:55.410Z,10.39
2023-01-15T15:09:46.067Z,10.19
2023-01-15T15:12:22.957Z,10.41
2023-01-15T15:15:24.560Z,10.38
2023-01-15T15:18:15.624Z,10.31
2023-01-15T15:21:15.049Z,10.18
2023-01-15T15:23:55.309Z,10.13
2023-01-15T15:26:27.451Z,9.98
2023-01-15T15:29:09.820Z,10.23
2023-01-15T15:31:43.353Z,10.17
2023-01-15T15:34:29.209Z,10.24
2023-01-15T15:37:00.548Z,10.31
2023-01-15T15:39:36.253Z,10.37
2023-01-15T15:42:24.306Z,9.98
2023-01-15T15:45:16.263Z,10.15
2023-01-15T15:48:02.460Z,10.42
2023-01-15T15:50:35.163Z,10.16
2023-01-15T15:53:06.898Z,9.83
2023-01-15T15:55:39.813Z,10.00
2023-01-15T15:58:08.493Z,9.99
2023-01-15T16:00:41.668Z,10.16
2023-01-15T16:03:19.891Z,10.31
2023-01-15T16:06:00.609Z,10.06
2023-01-15T16:08:30.037Z,10.40
2023-01-15T16:11:02.863Z,10.27
2023-01-15T16:13:41.418Z,10.24
2023-01-15T16:16:09.672Z,10.49
2023-01-15T16:18:41.226Z,10.56
2023-01-15T16:21:09.513Z,10.39
2023-01-15T16:23:37.282Z,10.69
2023-01-15T16:26:22.174Z,10.61
2023-01-15T16:28:57.751Z,10.74
2023-01-15T16:31:26.449Z,10.31
2023-01-15T16:36:25.151Z,10.06
2023-01-15T16:38:54.072Z,10.02
2023-01-15T16:41:32.284Z,10.20
2023-01-15T16:44:03.150Z,10.29
2023-01-15T16:46:33.015Z,10.50
2023-01-15T16:49:23.924Z,10.37
2023-01-15T16:51:59.097Z,10.56
2023-01-15T16:54:29.707Z,10.47
2023-01-15T16:57:01.158Z,10.25
2023-01-15T16:59:29.025Z,10.45
2023-01-15T17:02:12.373Z,10.30
2023-01-15T17:04:44.740Z,10.35
2023-01-15T17:07:37.118Z,10.44
2023-01-15T17:10:06.827Z,10.13
2023-01-15T17:12:38.523Z,10.10
2023-01-15T17:15:15.259Z,10.22
2023-01-15T17:17:47.835Z,10.22
2023-01-15T17:20:16.348Z,10.21
2023-01-15T17:22:45.971Z,10.18
2023-01-15T17:25:33.399Z,10.21
2023-01-15T17:28:04.395Z,10.20
2023-01-15T17:30:33.083Z,10.14
2023-01-15T17:33:02.309Z,10.09
2023-01-15T17:35:35.632Z,10.29
2023-01-15T17:38:04.882Z,10.16
2023-01-15T17:40:32.885Z,9.98
2023-01-15T17:43:00.490Z,9.87
2023-01-15T17:45:30.426Z,9.78
2023-01-15T17:47:58.212Z,10.14
2023-01-15T17:50:25.890Z,9.94
2023-01-15T17:52:53.608Z,9.86
2023-01-15T17:55:41.400Z,9.72
2023-01-15T17:58:32.142Z,9.94
2023-01-15T18:01:19.358Z,10.02
2023-01-15T18:04:08.794Z,9.81
2023-01-15T18:06:36.442Z,10.05
2023-01-15T18:09:06.247Z,10.13
2023-01-15T18:11:33.779Z,10.13
2023-01-15T18:14:01.188Z,10.21
2023-01-15T18:16:29.522Z,10.10
2023-01-15T18:18:57.081Z,10.35
2023-01-15T18:21:24.698Z,10.16
2023-01-15T18:23:52.913Z,10.25
2023-01-15T18:26:20.438Z,10.16
2023-01-15T18:28:48.674Z,10.38
2023-01-15T18:31:16.517Z,10.17
2023-01-15T18:33:43.941Z,10.20
2023-01-15T18:36:13.385Z,9.97
2023-01-15T18:38:47.401Z,9.97
2023-01-15T18:41:35.487Z,10.07
2023-01-15T18:44:31.927Z,10.15
2023-01-15T18:47:02.334Z,9.98
2023-01-15T18:49:30.895Z,10.15
2023-01-15T18:52:17.021Z,9.89
2023-01-15T18:54:44.924Z,10.17
2023-01-15T18:57:12.745Z,10.06
2023-01-15T18:59:40.304Z,9.97
2023-01-15T19:02:09.829Z,10.06
2023-01-15T19:04:38.262Z,10.00
2023-01-15T19:07:05.964Z,10.11
2023-01-15T19:09:35.842Z,10.10
2023-01-15T19:12:05.404Z,10.02
2023-01-15T19:14:52.608Z,10.05
2023-01-15T19:17:42.174Z,9.95
2023-01-15T19:20:12.733Z,10.06
2023-01-15T19:22:58.713Z,9.93
2023-01-15T19:25:40.746Z,10.14
2023-01-15T19:28:11.414Z,10.27
2023-01-15T19:30:39.859Z,9.99
2023-01-15T19:33:08.533Z,10.00
2023-01-15T19:35:38.754Z,9.84
2023-01-15T19:38:08.640Z,9.98
2023-01-15T19:40:40.406Z,9.91
2023-01-15T19:43:29.189Z,9.81
2023-01-15T19:46:20.297Z,9.96
2023-01-15T19:49:09.503Z,9.86
2023-01-15T19:51:55.655Z,9.85
2023-01-15T19:54:43.430Z,9.81
2023-01-15T19:57:11.272Z,9.85
2023-01-15T19:59:38.978Z,9.83
2023-01-15T20:02:07.449Z,10.05
2023-01-15T20:04:36.666Z,10.07
2023-01-15T20:07:04.097Z,10.16
2023-01-15T20:09:31.696Z,10.15
2023-01-15T20:12:20.099Z,9.94
2023-01-15T20:14:50.416Z,9.71
2023-01-15T20:17:18.778Z,9.61
2023-01-15T20:19:47.304Z,9.64
2023-01-15T20:22:15.292Z,9.57
2023-01-15T20:24:44.450Z,9.77
2023-01-15T20:27:13.871Z,9.66
2023-01-15T20:29:43.621Z,9.61
2023-01-15T20:32:11.685Z,9.72
2023-01-15T20:34:40.043Z,9.69
2023-01-15T20:37:08.025Z,9.71
2023-01-15T20:39:36.143Z,9.57
2023-01-15T20:42:22.368Z,9.62
2023-01-15T20:44:53.200Z,9.56
2023-01-15T20:47:47.400Z,9.51
2023-01-15T20:50:16.993Z,9.62
2023-01-15T20:52:49.420Z,9.66
2023-01-15T20:55:18.030Z,9.68
2023-01-15T20:57:45.976Z,9.66
2023-01-15T21:00:19.211Z,9.68
2023-01-15T21:02:47.585Z,9.65
2023-01-15T21:05:15.441Z,9.59
2023-01-15T21:07:42.864Z,9.65
2023-01-15T21:10:12.494Z,9.56
2023-01-15T21:12:40.111Z,9.58
2023-01-15T21:15:07.894Z,9.52
2023-01-15T21:17:37.585Z,9.55
2023-01-15T21:20:07.574Z,9.61
2023-01-15T21:22:35.424Z,9.63
2023-01-15T21:25:04.524Z,9.60
2023-01-15T21:27:33.271Z,9.49
2023-01-15T21:30:00.827Z,9.44
2023-01-15T21:32:28.863Z,9.44
2023-01-15T21:34:56.367Z,9.51
2023-01-15T21:37:23.772Z,9.46
2023-01-15T21:39:51.615Z,9.46
2023-01-15T21:42:39.406Z,9.51
2023-01-15T21:45:08.172Z,9.45
2023-01-15T21:47:39.029Z,9.38
2023-01-15T21:50:07.175Z,9.42
2023-01-15T21:52:34.748Z,9.38
2023-01-15T21:55:02.426Z,9.22
2023-01-15T21:57:30.560Z,9.32
2023-01-15T21:59:57.932Z,9.35
2023-01-15T22:02:25.570Z,9.21
2023-01-15T22:04:53.417Z,9.38
2023-01-15T22:07:21.273Z,9.39
2023-01-15T22:09:49.137Z,9.33
2023-01-15T22:12:18.870Z,9.23
2023-01-15T22:14:46.342Z,9.17
2023-01-15T22:17:13.886Z,9.24
2023-01-15T22:19:41.766Z,9.06
2023-01-15T22:22:10.893Z,9.10
2023-01-15T22:24:39.841Z,9.07
2023-01-15T22:27:09.275Z,9.02
2023-01-15T22:29:39.295Z,9.02
2023-01-15T22:32:08.755Z,8.96
2023-01-15T22:34:36.643Z,8.91
2023-01-15T22:37:04.221Z,8.94
2023-01-15T22:39:32.108Z,8.93
2023-01-15T22:42:18.216Z,8.94
2023-01-15T22:44:48.554Z,8.92
2023-01-15T22:47:17.451Z,8.92
2023-01-15T22:49:45.604Z,8.86
2023-01-15T22:52:13.570Z,8.67
2023-01-15T22:54:44.697Z,8.60
2023-01-15T22:57:13.365Z,8.68
2023-01-15T22:59:40.793Z,8.66
2023-01-15T23:02:08.955Z,8.63
2023-01-15T23:04:36.883Z,8.67
2023-01-15T23:07:04.404Z,8.66
2023-01-15T23:09:31.823Z,8.60
2023-01-15T23:11:59.624Z,8.81
2023-01-15T23:14:27.278Z,8.81
2023-01-15T23:16:54.690Z,8.69
2023-01-15T23:19:22.869Z,8.81
2023-01-15T23:21:50.246Z,8.83
2023-01-15T23:24:17.943Z,8.76
2023-01-15T23:26:46.114Z,9.15
2023-01-15T23:29:14.085Z,9.13
2023-01-15T23:31:41.554Z,8.70
2023-01-15T23:34:10.645Z,8.40
2023-01-15T23:36:38.625Z,8.53
2023-01-15T23:39:06.554Z,8.51
2023-01-15T23:41:52.936Z,8.57
2023-01-15T23:44:39.427Z,8.73
2023-01-15T23:47:08.061Z,8.79
2023-01-15T23:49:35.631Z,8.65
2023-01-15T23:52:03.737Z,8.67
2023-01-15T23:54:31.710Z,8.83
2023-01-15T23:57:00.944Z,8.84
2023-01-15T23:59:29.173Z,8.84
